sensor_id;sensor_type;location;lat;lon;timestamp;P1;durP1;ratioP1;P2;durP2;ratioP2
21444;SDS011;10883;51.946;20.140;2023-05-02T00:00:27;13.25;;;5.45;;
21444;SDS011;10883;51.946;20.140;2023-05-02T00:02:53;14.35;;;6.13;;
21444;SDS011;10883;51.946;20.140;2023-05-02T00:05:19;18.27;;;7.07;;
21444;SDS011;10883;51.946;20.140;2023-05-02T00:07:46;13.13;;;6.95;;
21444;SDS011;10883;51.946;20.140;2023-05-02T00:10:12;15.90;;;6.72;;
21444;SDS011;10883;51.946;20.140;2023-05-02T00:12:38;10.73;;;5.60;;
21444;SDS011;10883;51.946;20.140;2023-05-02T00:15:04;10.93;;;5.47;;
21444;SDS011;10883;51.946;20.140;2023-05-02T00:17:30;13.85;;;6.45;;
21444;SDS011;10883;51.946;20.140;2023-05-02T00:19:57;11.70;;;6.20;;
21444;SDS011;10883;51.946;20.140;2023-05-02T00:22:23;13.60;;;5.93;;
21444;SDS011;10883;51.946;20.140;2023-05-02T00:24:52;12.55;;;6.70;;
21444;SDS011;10883;51.946;20.140;2023-05-02T00:27:21;20.27;;;8.05;;
21444;SDS011;10883;51.946;20.140;2023-05-02T00:29:47;11.93;;;5.00;;
21444;SDS011;10883;51.946;20.140;2023-05-02T00:32:13;11.82;;;5.85;;
21444;SDS011;10883;51.946;20.140;2023-05-02T00:34:39;12.77;;;5.95;;
21444;SDS011;10883;51.946;20.140;2023-05-02T00:37:05;13.68;;;5.88;;
21444;SDS011;10883;51.946;20.140;2023-05-02T00:39:35;16.85;;;5.78;;
21444;SDS011;10883;51.946;20.140;2023-05-02T00:42:01;12.48;;;6.13;;
21444;SDS011;10883;51.946;20.140;2023-05-02T00:44:27;14.90;;;6.00;;
21444;SDS011;10883;51.946;20.140;2023-05-02T00:46:54;11.35;;;5.88;;
21444;SDS011;10883;51.946;20.140;2023-05-02T00:49:20;13.18;;;6.05;;
21444;SDS011;10883;51.946;20.140;2023-05-02T00:51:46;12.27;;;5.95;;
21444;SDS011;10883;51.946;20.140;2023-05-02T00:54:13;14.20;;;6.43;;
21444;SDS011;10883;51.946;20.140;2023-05-02T00:56:39;13.68;;;5.80;;
21444;SDS011;10883;51.946;20.140;2023-05-02T00:59:06;11.65;;;6.55;;
21444;SDS011;10883;51.946;20.140;2023-05-02T01:06:47;13.82;;;6.60;;
21444;SDS011;10883;51.946;20.140;2023-05-02T01:09:25;15.15;;;6.55;;
21444;SDS011;10883;51.946;20.140;2023-05-02T01:12:01;10.98;;;5.93;;
21444;SDS011;10883;51.946;20.140;2023-05-02T01:14:30;10.75;;;5.47;;
21444;SDS011;10883;51.946;20.140;2023-05-02T01:16:58;16.17;;;6.47;;
21444;SDS011;10883;51.946;20.140;2023-05-02T01:19:30;10.93;;;5.28;;
21444;SDS011;10883;51.946;20.140;2023-05-02T01:21:57;13.63;;;5.93;;
21444;SDS011;10883;51.946;20.140;2023-05-02T01:24:25;9.95;;;5.85;;
21444;SDS011;10883;51.946;20.140;2023-05-02T01:29:28;11.25;;;5.35;;
21444;SDS011;10883;51.946;20.140;2023-05-02T01:31:55;12.10;;;5.75;;
21444;SDS011;10883;51.946;20.140;2023-05-02T01:34:22;12.18;;;6.10;;
21444;SDS011;10883;51.946;20.140;2023-05-02T01:36:49;10.98;;;5.60;;
21444;SDS011;10883;51.946;20.140;2023-05-02T01:39:20;9.98;;;5.97;;
21444;SDS011;10883;51.946;20.140;2023-05-02T01:41:48;14.13;;;5.68;;
21444;SDS011;10883;51.946;20.140;2023-05-02T01:44:16;10.55;;;5.18;;
21444;SDS011;10883;51.946;20.140;2023-05-02T01:46:43;14.50;;;5.40;;
21444;SDS011;10883;51.946;20.140;2023-05-02T01:49:09;10.18;;;5.15;;
21444;SDS011;10883;51.946;20.140;2023-05-02T01:51:40;14.75;;;6.40;;
21444;SDS011;10883;51.946;20.140;2023-05-02T01:54:08;10.88;;;5.10;;
21444;SDS011;10883;51.946;20.140;2023-05-02T01:56:35;13.68;;;6.03;;
21444;SDS011;10883;51.946;20.140;2023-05-02T01:59:06;13.98;;;6.68;;
21444;SDS011;10883;51.946;20.140;2023-05-02T02:01:37;14.70;;;5.97;;
21444;SDS011;10883;51.946;20.140;2023-05-02T02:04:03;12.23;;;5.25;;
21444;SDS011;10883;51.946;20.140;2023-05-02T02:06:30;10.45;;;5.00;;
21444;SDS011;10883;51.946;20.140;2023-05-02T02:08:57;10.30;;;5.22;;
21444;SDS011;10883;51.946;20.140;2023-05-02T02:14:23;17.17;;;6.40;;
21444;SDS011;10883;51.946;20.140;2023-05-02T02:16:50;12.55;;;5.80;;
21444;SDS011;10883;51.946;20.140;2023-05-02T02:19:18;13.18;;;5.88;;
21444;SDS011;10883;51.946;20.140;2023-05-02T02:21:45;14.38;;;6.03;;
21444;SDS011;10883;51.946;20.140;2023-05-02T02:24:12;16.00;;;6.00;;
21444;SDS011;10883;51.946;20.140;2023-05-02T02:26:40;13.32;;;5.60;;
21444;SDS011;10883;51.946;20.140;2023-05-02T02:29:06;14.88;;;6.07;;
21444;SDS011;10883;51.946;20.140;2023-05-02T02:31:32;12.55;;;5.43;;
21444;SDS011;10883;51.946;20.140;2023-05-02T02:33:59;10.82;;;5.20;;
21444;SDS011;10883;51.946;20.140;2023-05-02T02:36:33;11.00;;;5.63;;
21444;SDS011;10883;51.946;20.140;2023-05-02T02:41:31;11.93;;;5.55;;
21444;SDS011;10883;51.946;20.140;2023-05-02T02:51:22;11.43;;;5.43;;
21444;SDS011;10883;51.946;20.140;2023-05-02T02:53:57;16.92;;;5.95;;
21444;SDS011;10883;51.946;20.140;2023-05-02T02:56:27;14.75;;;5.68;;
21444;SDS011;10883;51.946;20.140;2023-05-02T02:59:03;12.20;;;5.30;;
21444;SDS011;10883;51.946;20.140;2023-05-02T03:01:30;9.70;;;5.30;;
21444;SDS011;10883;51.946;20.140;2023-05-02T03:03:57;11.73;;;5.43;;
21444;SDS011;10883;51.946;20.140;2023-05-02T03:06:23;12.15;;;5.30;;
21444;SDS011;10883;51.946;20.140;2023-05-02T03:08:50;12.57;;;5.47;;
21444;SDS011;10883;51.946;20.140;2023-05-02T03:11:16;10.38;;;5.10;;
21444;SDS011;10883;51.946;20.140;2023-05-02T03:13:42;11.68;;;5.53;;
21444;SDS011;10883;51.946;20.140;2023-05-02T03:18:53;24.23;;;7.30;;
21444;SDS011;10883;51.946;20.140;2023-05-02T03:21:19;10.57;;;5.15;;
21444;SDS011;10883;51.946;20.140;2023-05-02T03:23:45;9.77;;;5.55;;
21444;SDS011;10883;51.946;20.140;2023-05-02T03:26:11;14.55;;;5.18;;
21444;SDS011;10883;51.946;20.140;2023-05-02T03:28:37;12.05;;;5.85;;
21444;SDS011;10883;51.946;20.140;2023-05-02T03:31:03;10.02;;;5.00;;
21444;SDS011;10883;51.946;20.140;2023-05-02T03:33:29;10.48;;;4.93;;
21444;SDS011;10883;51.946;20.140;2023-05-02T03:35:56;15.73;;;5.88;;
21444;SDS011;10883;51.946;20.140;2023-05-02T03:38:22;10.80;;;5.40;;
21444;SDS011;10883;51.946;20.140;2023-05-02T03:40:49;9.77;;;4.80;;
21444;SDS011;10883;51.946;20.140;2023-05-02T03:43:15;12.25;;;5.15;;
21444;SDS011;10883;51.946;20.140;2023-05-02T03:45:41;13.35;;;5.57;;
21444;SDS011;10883;51.946;20.140;2023-05-02T03:48:07;10.80;;;4.95;;
21444;SDS011;10883;51.946;20.140;2023-05-02T03:50:33;8.55;;;4.90;;
21444;SDS011;10883;51.946;20.140;2023-05-02T03:52:59;8.25;;;4.28;;
21444;SDS011;10883;51.946;20.140;2023-05-02T03:55:25;12.57;;;4.75;;
21444;SDS011;10883;51.946;20.140;2023-05-02T03:57:52;11.55;;;5.40;;
21444;SDS011;10883;51.946;20.140;2023-05-02T04:00:18;12.45;;;5.40;;
21444;SDS011;10883;51.946;20.140;2023-05-02T04:02:44;16.08;;;5.78;;
21444;SDS011;10883;51.946;20.140;2023-05-02T04:05:11;10.40;;;4.80;;
21444;SDS011;10883;51.946;20.140;2023-05-02T04:07:37;9.70;;;4.80;;
21444;SDS011;10883;51.946;20.140;2023-05-02T04:10:03;10.75;;;5.35;;
21444;SDS011;10883;51.946;20.140;2023-05-02T04:12:29;10.40;;;5.18;;
21444;SDS011;10883;51.946;20.140;2023-05-02T04:14:55;11.93;;;5.43;;
21444;SDS011;10883;51.946;20.140;2023-05-02T04:17:21;8.93;;;4.95;;
21444;SDS011;10883;51.946;20.140;2023-05-02T04:19:47;13.52;;;5.50;;
21444;SDS011;10883;51.946;20.140;2023-05-02T04:22:15;8.57;;;4.43;;
21444;SDS011;10883;51.946;20.140;2023-05-02T04:24:41;13.68;;;5.07;;
21444;SDS011;10883;51.946;20.140;2023-05-02T04:27:07;12.00;;;4.80;;
21444;SDS011;10883;51.946;20.140;2023-05-02T04:29:33;12.93;;;5.45;;
21444;SDS011;10883;51.946;20.140;2023-05-02T04:32:00;12.73;;;5.18;;
21444;SDS011;10883;51.946;20.140;2023-05-02T04:34:26;10.07;;;5.20;;
21444;SDS011;10883;51.946;20.140;2023-05-02T04:36:52;16.40;;;5.03;;
21444;SDS011;10883;51.946;20.140;2023-05-02T04:39:18;11.23;;;5.60;;
21444;SDS011;10883;51.946;20.140;2023-05-02T04:41:45;11.27;;;5.32;;
21444;SDS011;10883;51.946;20.140;2023-05-02T04:44:11;11.07;;;5.07;;
21444;SDS011;10883;51.946;20.140;2023-05-02T04:46:37;10.93;;;4.90;;
21444;SDS011;10883;51.946;20.140;2023-05-02T04:49:03;9.75;;;5.50;;
21444;SDS011;10883;51.946;20.140;2023-05-02T04:51:29;8.98;;;4.32;;
21444;SDS011;10883;51.946;20.140;2023-05-02T04:53:56;11.45;;;5.57;;
21444;SDS011;10883;51.946;20.140;2023-05-02T04:56:30;11.75;;;4.88;;
21444;SDS011;10883;51.946;20.140;2023-05-02T04:59:07;8.13;;;4.78;;
21444;SDS011;10883;51.946;20.140;2023-05-02T05:01:45;10.10;;;5.43;;
21444;SDS011;10883;51.946;20.140;2023-05-02T05:04:14;11.77;;;5.38;;
21444;SDS011;10883;51.946;20.140;2023-05-02T05:06:40;9.18;;;4.75;;
21444;SDS011;10883;51.946;20.140;2023-05-02T05:09:09;11.85;;;5.43;;
21444;SDS011;10883;51.946;20.140;2023-05-02T05:11:39;9.98;;;5.30;;
21444;SDS011;10883;51.946;20.140;2023-05-02T05:14:07;9.40;;;5.07;;
21444;SDS011;10883;51.946;20.140;2023-05-02T05:16:37;12.80;;;5.60;;
21444;SDS011;10883;51.946;20.140;2023-05-02T05:19:03;9.18;;;4.75;;
21444;SDS011;10883;51.946;20.140;2023-05-02T05:21:32;8.02;;;4.43;;
21444;SDS011;10883;51.946;20.140;2023-05-02T05:24:07;10.80;;;5.20;;
21444;SDS011;10883;51.946;20.140;2023-05-02T05:26:37;11.48;;;5.05;;
21444;SDS011;10883;51.946;20.140;2023-05-02T05:29:10;8.38;;;4.60;;
21444;SDS011;10883;51.946;20.140;2023-05-02T05:31:36;10.30;;;5.10;;
21444;SDS011;10883;51.946;20.140;2023-05-02T05:34:02;9.70;;;5.65;;
21444;SDS011;10883;51.946;20.140;2023-05-02T05:36:31;14.38;;;5.47;;
21444;SDS011;10883;51.946;20.140;2023-05-02T05:39:00;10.93;;;5.72;;
21444;SDS011;10883;51.946;20.140;2023-05-02T05:41:30;10.90;;;5.20;;
21444;SDS011;10883;51.946;20.140;2023-05-02T05:44:03;7.30;;;4.72;;
21444;SDS011;10883;51.946;20.140;2023-05-02T05:46:35;10.30;;;5.20;;
21444;SDS011;10883;51.946;20.140;2023-05-02T05:49:02;9.80;;;5.30;;
21444;SDS011;10883;51.946;20.140;2023-05-02T05:51:28;15.70;;;6.60;;
21444;SDS011;10883;51.946;20.140;2023-05-02T05:53:55;9.95;;;5.15;;
21444;SDS011;10883;51.946;20.140;2023-05-02T05:56:21;9.45;;;4.65;;
21444;SDS011;10883;51.946;20.140;2023-05-02T05:58:47;11.43;;;5.25;;
21444;SDS011;10883;51.946;20.140;2023-05-02T06:01:13;10.25;;;5.30;;
21444;SDS011;10883;51.946;20.140;2023-05-02T06:03:39;7.85;;;4.40;;
21444;SDS011;10883;51.946;20.140;2023-05-02T06:06:06;11.85;;;5.78;;
21444;SDS011;10883;51.946;20.140;2023-05-02T06:08:32;13.77;;;6.18;;
21444;SDS011;10883;51.946;20.140;2023-05-02T06:10:58;7.53;;;4.70;;
21444;SDS011;10883;51.946;20.140;2023-05-02T06:13:24;9.02;;;5.00;;
21444;SDS011;10883;51.946;20.140;2023-05-02T06:15:50;9.32;;;4.68;;
21444;SDS011;10883;51.946;20.140;2023-05-02T06:18:17;9.45;;;5.20;;
21444;SDS011;10883;51.946;20.140;2023-05-02T06:20:43;8.63;;;4.57;;
21444;SDS011;10883;51.946;20.140;2023-05-02T06:23:09;8.02;;;4.93;;
21444;SDS011;10883;51.946;20.140;2023-05-02T06:25:38;9.10;;;4.55;;
21444;SDS011;10883;51.946;20.140;2023-05-02T06:28:04;9.10;;;4.32;;
21444;SDS011;10883;51.946;20.140;2023-05-02T06:30:31;8.07;;;4.28;;
21444;SDS011;10883;51.946;20.140;2023-05-02T06:32:57;12.65;;;4.90;;
21444;SDS011;10883;51.946;20.140;2023-05-02T06:35:23;11.30;;;5.05;;
21444;SDS011;10883;51.946;20.140;2023-05-02T06:37:49;8.20;;;4.57;;
21444;SDS011;10883;51.946;20.140;2023-05-02T06:40:15;10.52;;;5.13;;
21444;SDS011;10883;51.946;20.140;2023-05-02T06:42:41;9.15;;;4.45;;
21444;SDS011;10883;51.946;20.140;2023-05-02T06:45:07;8.75;;;4.35;;
21444;SDS011;10883;51.946;20.140;2023-05-02T06:47:34;11.15;;;4.53;;
21444;SDS011;10883;51.946;20.140;2023-05-02T06:50:00;8.57;;;4.70;;
21444;SDS011;10883;51.946;20.140;2023-05-02T06:52:26;7.25;;;3.95;;
21444;SDS011;10883;51.946;20.140;2023-05-02T06:54:52;6.32;;;3.85;;
21444;SDS011;10883;51.946;20.140;2023-05-02T06:57:18;8.05;;;3.83;;
21444;SDS011;10883;51.946;20.140;2023-05-02T06:59:44;6.70;;;3.78;;
21444;SDS011;10883;51.946;20.140;2023-05-02T07:02:10;6.53;;;3.83;;
21444;SDS011;10883;51.946;20.140;2023-05-02T07:04:36;6.25;;;3.88;;
21444;SDS011;10883;51.946;20.140;2023-05-02T07:07:02;7.82;;;3.60;;
21444;SDS011;10883;51.946;20.140;2023-05-02T07:09:28;5.05;;;3.88;;
21444;SDS011;10883;51.946;20.140;2023-05-02T07:11:55;8.95;;;4.13;;
21444;SDS011;10883;51.946;20.140;2023-05-02T07:14:21;7.10;;;3.78;;
21444;SDS011;10883;51.946;20.140;2023-05-02T07:16:47;9.45;;;4.78;;
21444;SDS011;10883;51.946;20.140;2023-05-02T07:19:13;17.52;;;4.90;;
21444;SDS011;10883;51.946;20.140;2023-05-02T07:21:39;9.88;;;4.65;;
21444;SDS011;10883;51.946;20.140;2023-05-02T07:24:05;16.42;;;5.43;;
21444;SDS011;10883;51.946;20.140;2023-05-02T07:26:31;7.70;;;5.05;;
21444;SDS011;10883;51.946;20.140;2023-05-02T07:28:57;8.63;;;4.38;;
21444;SDS011;10883;51.946;20.140;2023-05-02T07:31:23;9.85;;;5.88;;
21444;SDS011;10883;51.946;20.140;2023-05-02T07:33:49;8.43;;;5.10;;
21444;SDS011;10883;51.946;20.140;2023-05-02T07:36:16;10.95;;;4.93;;
21444;SDS011;10883;51.946;20.140;2023-05-02T07:38:42;10.00;;;4.70;;
21444;SDS011;10883;51.946;20.140;2023-05-02T07:41:08;9.45;;;4.68;;
21444;SDS011;10883;51.946;20.140;2023-05-02T07:43:34;10.65;;;4.80;;
21444;SDS011;10883;51.946;20.140;2023-05-02T07:46:03;10.88;;;5.13;;
21444;SDS011;10883;51.946;20.140;2023-05-02T07:48:30;10.07;;;4.93;;
21444;SDS011;10883;51.946;20.140;2023-05-02T07:51:04;10.18;;;5.18;;
21444;SDS011;10883;51.946;20.140;2023-05-02T07:53:30;11.95;;;5.20;;
21444;SDS011;10883;51.946;20.140;2023-05-02T07:55:56;8.23;;;4.40;;
21444;SDS011;10883;51.946;20.140;2023-05-02T07:58:22;7.80;;;4.50;;
21444;SDS011;10883;51.946;20.140;2023-05-02T08:00:48;9.35;;;4.35;;
21444;SDS011;10883;51.946;20.140;2023-05-02T08:03:14;8.75;;;4.68;;
21444;SDS011;10883;51.946;20.140;2023-05-02T08:05:40;11.02;;;4.78;;
21444;SDS011;10883;51.946;20.140;2023-05-02T08:08:06;9.55;;;4.82;;
21444;SDS011;10883;51.946;20.140;2023-05-02T08:10:33;7.18;;;4.13;;
21444;SDS011;10883;51.946;20.140;2023-05-02T08:12:59;7.20;;;4.05;;
21444;SDS011;10883;51.946;20.140;2023-05-02T08:15:26;7.57;;;4.35;;
21444;SDS011;10883;51.946;20.140;2023-05-02T08:17:52;5.60;;;4.13;;
21444;SDS011;10883;51.946;20.140;2023-05-02T08:20:18;9.07;;;4.20;;
21444;SDS011;10883;51.946;20.140;2023-05-02T08:22:46;5.97;;;3.95;;
21444;SDS011;10883;51.946;20.140;2023-05-02T08:25:12;6.75;;;4.28;;
21444;SDS011;10883;51.946;20.140;2023-05-02T08:27:38;9.63;;;4.22;;
21444;SDS011;10883;51.946;20.140;2023-05-02T08:30:04;8.80;;;4.63;;
21444;SDS011;10883;51.946;20.140;2023-05-02T08:32:31;9.23;;;4.22;;
21444;SDS011;10883;51.946;20.140;2023-05-02T08:34:58;7.00;;;4.03;;
21444;SDS011;10883;51.946;20.140;2023-05-02T08:37:25;5.53;;;4.28;;
21444;SDS011;10883;51.946;20.140;2023-05-02T08:39:51;9.90;;;4.72;;
21444;SDS011;10883;51.946;20.140;2023-05-02T08:42:18;7.57;;;4.32;;
21444;SDS011;10883;51.946;20.140;2023-05-02T08:44:49;8.57;;;5.07;;
21444;SDS011;10883;51.946;20.140;2023-05-02T08:47:16;9.32;;;4.90;;
21444;SDS011;10883;51.946;20.140;2023-05-02T08:49:45;9.82;;;4.88;;
21444;SDS011;10883;51.946;20.140;2023-05-02T08:52:13;8.70;;;4.70;;
21444;SDS011;10883;51.946;20.140;2023-05-02T08:54:40;6.68;;;4.43;;
21444;SDS011;10883;51.946;20.140;2023-05-02T08:57:11;5.65;;;3.67;;
21444;SDS011;10883;51.946;20.140;2023-05-02T08:59:41;6.35;;;4.13;;
21444;SDS011;10883;51.946;20.140;2023-05-02T09:04:53;7.80;;;4.57;;
21444;SDS011;10883;51.946;20.140;2023-05-02T09:07:20;8.38;;;4.53;;
21444;SDS011;10883;51.946;20.140;2023-05-02T09:09:46;7.72;;;4.35;;
21444;SDS011;10883;51.946;20.140;2023-05-02T09:12:12;11.07;;;4.68;;
21444;SDS011;10883;51.946;20.140;2023-05-02T09:14:41;6.97;;;4.10;;
21444;SDS011;10883;51.946;20.140;2023-05-02T09:17:09;7.82;;;4.10;;
21444;SDS011;10883;51.946;20.140;2023-05-02T09:19:35;8.23;;;4.38;;
21444;SDS011;10883;51.946;20.140;2023-05-02T09:22:01;8.35;;;4.43;;
21444;SDS011;10883;51.946;20.140;2023-05-02T09:24:27;5.90;;;3.75;;
21444;SDS011;10883;51.946;20.140;2023-05-02T09:27:00;7.43;;;4.28;;
21444;SDS011;10883;51.946;20.140;2023-05-02T09:29:27;7.40;;;4.47;;
21444;SDS011;10883;51.946;20.140;2023-05-02T09:32:01;7.18;;;4.47;;
21444;SDS011;10883;51.946;20.140;2023-05-02T09:34:27;5.18;;;3.90;;
21444;SDS011;10883;51.946;20.140;2023-05-02T09:36:55;11.82;;;5.38;;
21444;SDS011;10883;51.946;20.140;2023-05-02T09:39:22;7.97;;;4.40;;
21444;SDS011;10883;51.946;20.140;2023-05-02T09:41:49;6.15;;;3.63;;
21444;SDS011;10883;51.946;20.140;2023-05-02T09:44:16;6.43;;;4.25;;
21444;SDS011;10883;51.946;20.140;2023-05-02T09:46:47;10.80;;;4.32;;
21444;SDS011;10883;51.946;20.140;2023-05-02T09:49:13;10.80;;;4.78;;
21444;SDS011;10883;51.946;20.140;2023-05-02T09:51:43;6.18;;;4.47;;
21444;SDS011;10883;51.946;20.140;2023-05-02T09:54:11;5.78;;;4.85;;
21444;SDS011;10883;51.946;20.140;2023-05-02T09:56:50;6.45;;;4.20;;
21444;SDS011;10883;51.946;20.140;2023-05-02T09:59:17;6.82;;;4.60;;
21444;SDS011;10883;51.946;20.140;2023-05-02T10:01:43;6.55;;;5.22;;
21444;SDS011;10883;51.946;20.140;2023-05-02T10:04:12;20.02;;;11.73;;
21444;SDS011;10883;51.946;20.140;2023-05-02T10:06:43;14.77;;;9.13;;
21444;SDS011;10883;51.946;20.140;2023-05-02T10:09:09;16.77;;;11.77;;
21444;SDS011;10883;51.946;20.140;2023-05-02T10:11:41;14.23;;;8.07;;
21444;SDS011;10883;51.946;20.140;2023-05-02T10:14:08;15.02;;;7.80;;
21444;SDS011;10883;51.946;20.140;2023-05-02T10:16:35;12.77;;;7.15;;
21444;SDS011;10883;51.946;20.140;2023-05-02T10:19:02;11.73;;;6.68;;
21444;SDS011;10883;51.946;20.140;2023-05-02T10:21:32;11.00;;;5.28;;
21444;SDS011;10883;51.946;20.140;2023-05-02T10:24:00;10.90;;;6.00;;
21444;SDS011;10883;51.946;20.140;2023-05-02T10:26:28;10.25;;;5.30;;
21444;SDS011;10883;51.946;20.140;2023-05-02T10:28:57;9.40;;;6.13;;
21444;SDS011;10883;51.946;20.140;2023-05-02T10:31:25;7.25;;;4.43;;
21444;SDS011;10883;51.946;20.140;2023-05-02T10:33:55;7.95;;;5.88;;
21444;SDS011;10883;51.946;20.140;2023-05-02T10:36:22;14.57;;;6.57;;
21444;SDS011;10883;51.946;20.140;2023-05-02T10:38:48;17.25;;;8.52;;
21444;SDS011;10883;51.946;20.140;2023-05-02T10:41:20;16.20;;;8.15;;
21444;SDS011;10883;51.946;20.140;2023-05-02T10:43:48;12.35;;;8.07;;
21444;SDS011;10883;51.946;20.140;2023-05-02T10:51:31;7.97;;;5.78;;
21444;SDS011;10883;51.946;20.140;2023-05-02T11:01:57;9.95;;;5.45;;
21444;SDS011;10883;51.946;20.140;2023-05-02T11:04:24;10.85;;;5.40;;
21444;SDS011;10883;51.946;20.140;2023-05-02T11:11:49;8.75;;;5.65;;
21444;SDS011;10883;51.946;20.140;2023-05-02T11:19:27;5.47;;;4.20;;
21444;SDS011;10883;51.946;20.140;2023-05-02T11:24:39;8.05;;;3.70;;
21444;SDS011;10883;51.946;20.140;2023-05-02T11:29:51;7.15;;;4.35;;
21444;SDS011;10883;51.946;20.140;2023-05-02T11:32:17;6.30;;;3.97;;
21444;SDS011;10883;51.946;20.140;2023-05-02T11:34:44;5.97;;;4.30;;
21444;SDS011;10883;51.946;20.140;2023-05-02T11:37:11;10.18;;;5.55;;
21444;SDS011;10883;51.946;20.140;2023-05-02T11:39:37;8.15;;;4.28;;
21444;SDS011;10883;51.946;20.140;2023-05-02T11:42:04;4.80;;;3.72;;
21444;SDS011;10883;51.946;20.140;2023-05-02T11:44:30;5.15;;;3.53;;
21444;SDS011;10883;51.946;20.140;2023-05-02T11:46:56;5.53;;;4.07;;
21444;SDS011;10883;51.946;20.140;2023-05-02T11:49:23;4.32;;;3.92;;
21444;SDS011;10883;51.946;20.140;2023-05-02T11:51:49;7.63;;;4.72;;
21444;SDS011;10883;51.946;20.140;2023-05-02T11:54:18;7.18;;;3.80;;
21444;SDS011;10883;51.946;20.140;2023-05-02T11:56:46;8.40;;;4.47;;
21444;SDS011;10883;51.946;20.140;2023-05-02T11:59:12;7.13;;;4.50;;
21444;SDS011;10883;51.946;20.140;2023-05-02T12:01:48;6.20;;;4.50;;
21444;SDS011;10883;51.946;20.140;2023-05-02T12:04:14;6.22;;;3.58;;
21444;SDS011;10883;51.946;20.140;2023-05-02T12:06:55;5.13;;;3.30;;
21444;SDS011;10883;51.946;20.140;2023-05-02T12:09:21;4.90;;;3.38;;
21444;SDS011;10883;51.946;20.140;2023-05-02T12:11:51;13.32;;;4.45;;
21444;SDS011;10883;51.946;20.140;2023-05-02T12:14:24;9.52;;;4.82;;
21444;SDS011;10883;51.946;20.140;2023-05-02T12:16:51;5.90;;;3.83;;
21444;SDS011;10883;51.946;20.140;2023-05-02T12:19:17;4.85;;;3.25;;
21444;SDS011;10883;51.946;20.140;2023-05-02T12:21:43;8.07;;;3.20;;
21444;SDS011;10883;51.946;20.140;2023-05-02T12:24:09;4.78;;;3.92;;
21444;SDS011;10883;51.946;20.140;2023-05-02T12:26:35;5.80;;;3.42;;
21444;SDS011;10883;51.946;20.140;2023-05-02T12:29:01;15.60;;;5.10;;
21444;SDS011;10883;51.946;20.140;2023-05-02T12:31:28;6.30;;;3.47;;
21444;SDS011;10883;51.946;20.140;2023-05-02T12:33:56;6.80;;;3.95;;
21444;SDS011;10883;51.946;20.140;2023-05-02T12:36:24;8.18;;;3.97;;
21444;SDS011;10883;51.946;20.140;2023-05-02T12:38:53;6.10;;;3.55;;
21444;SDS011;10883;51.946;20.140;2023-05-02T12:41:37;5.97;;;4.10;;
21444;SDS011;10883;51.946;20.140;2023-05-02T12:44:04;8.27;;;3.60;;
21444;SDS011;10883;51.946;20.140;2023-05-02T12:46:31;9.85;;;2.75;;
21444;SDS011;10883;51.946;20.140;2023-05-02T12:49:00;4.75;;;3.10;;
21444;SDS011;10883;51.946;20.140;2023-05-02T12:51:26;3.83;;;3.22;;
21444;SDS011;10883;51.946;20.140;2023-05-02T12:53:52;5.43;;;3.30;;
21444;SDS011;10883;51.946;20.140;2023-05-02T12:56:19;7.13;;;2.78;;
21444;SDS011;10883;51.946;20.140;2023-05-02T12:58:46;6.05;;;3.40;;
21444;SDS011;10883;51.946;20.140;2023-05-02T13:01:13;5.50;;;2.88;;
21444;SDS011;10883;51.946;20.140;2023-05-02T13:03:39;6.75;;;4.35;;
21444;SDS011;10883;51.946;20.140;2023-05-02T13:06:05;10.52;;;5.55;;
21444;SDS011;10883;51.946;20.140;2023-05-02T13:08:32;13.43;;;8.27;;
21444;SDS011;10883;51.946;20.140;2023-05-02T13:10:59;12.30;;;7.78;;
21444;SDS011;10883;51.946;20.140;2023-05-02T13:13:25;5.47;;;3.75;;
21444;SDS011;10883;51.946;20.140;2023-05-02T13:15:52;5.82;;;3.90;;
21444;SDS011;10883;51.946;20.140;2023-05-02T13:18:18;8.75;;;4.13;;
21444;SDS011;10883;51.946;20.140;2023-05-02T13:20:44;7.15;;;3.35;;
21444;SDS011;10883;51.946;20.140;2023-05-02T13:23:10;7.40;;;3.60;;
21444;SDS011;10883;51.946;20.140;2023-05-02T13:25:36;6.50;;;3.70;;
21444;SDS011;10883;51.946;20.140;2023-05-02T13:28:02;6.93;;;4.13;;
21444;SDS011;10883;51.946;20.140;2023-05-02T13:30:30;6.43;;;4.10;;
21444;SDS011;10883;51.946;20.140;2023-05-02T13:32:56;7.03;;;3.15;;
21444;SDS011;10883;51.946;20.140;2023-05-02T13:35:23;7.03;;;3.58;;
21444;SDS011;10883;51.946;20.140;2023-05-02T13:37:49;12.02;;;3.63;;
21444;SDS011;10883;51.946;20.140;2023-05-02T13:40:16;7.25;;;3.58;;
21444;SDS011;10883;51.946;20.140;2023-05-02T13:42:42;5.60;;;3.65;;
21444;SDS011;10883;51.946;20.140;2023-05-02T13:45:08;9.68;;;4.07;;
21444;SDS011;10883;51.946;20.140;2023-05-02T13:47:34;3.33;;;2.60;;
21444;SDS011;10883;51.946;20.140;2023-05-02T13:50:00;4.97;;;2.80;;
21444;SDS011;10883;51.946;20.140;2023-05-02T13:52:27;4.35;;;2.63;;
21444;SDS011;10883;51.946;20.140;2023-05-02T13:54:53;5.47;;;2.45;;
21444;SDS011;10883;51.946;20.140;2023-05-02T13:57:19;5.63;;;3.20;;
21444;SDS011;10883;51.946;20.140;2023-05-02T13:59:45;7.90;;;3.17;;
21444;SDS011;10883;51.946;20.140;2023-05-02T14:02:11;6.22;;;3.05;;
21444;SDS011;10883;51.946;20.140;2023-05-02T14:04:37;8.10;;;3.03;;
21444;SDS011;10883;51.946;20.140;2023-05-02T14:07:03;3.58;;;2.60;;
21444;SDS011;10883;51.946;20.140;2023-05-02T14:09:29;5.20;;;3.70;;
21444;SDS011;10883;51.946;20.140;2023-05-02T14:11:55;8.27;;;3.75;;
21444;SDS011;10883;51.946;20.140;2023-05-02T14:14:22;5.50;;;2.90;;
21444;SDS011;10883;51.946;20.140;2023-05-02T14:16:49;5.13;;;3.60;;
21444;SDS011;10883;51.946;20.140;2023-05-02T14:19:15;7.13;;;3.03;;
21444;SDS011;10883;51.946;20.140;2023-05-02T14:21:42;5.22;;;2.85;;
21444;SDS011;10883;51.946;20.140;2023-05-02T14:24:08;5.97;;;3.70;;
21444;SDS011;10883;51.946;20.140;2023-05-02T14:26:36;4.38;;;2.95;;
21444;SDS011;10883;51.946;20.140;2023-05-02T14:29:02;5.63;;;3.60;;
21444;SDS011;10883;51.946;20.140;2023-05-02T14:31:28;5.47;;;3.50;;
21444;SDS011;10883;51.946;20.140;2023-05-02T14:33:54;4.13;;;3.00;;
21444;SDS011;10883;51.946;20.140;2023-05-02T14:36:21;3.58;;;2.60;;
21444;SDS011;10883;51.946;20.140;2023-05-02T14:38:47;4.28;;;3.00;;
21444;SDS011;10883;51.946;20.140;2023-05-02T14:41:13;5.45;;;3.13;;
21444;SDS011;10883;51.946;20.140;2023-05-02T14:43:39;6.65;;;3.55;;
21444;SDS011;10883;51.946;20.140;2023-05-02T14:46:05;8.32;;;4.95;;
21444;SDS011;10883;51.946;20.140;2023-05-02T14:48:31;8.75;;;4.25;;
21444;SDS011;10883;51.946;20.140;2023-05-02T14:50:57;7.35;;;4.93;;
21444;SDS011;10883;51.946;20.140;2023-05-02T14:53:25;7.45;;;4.13;;
21444;SDS011;10883;51.946;20.140;2023-05-02T14:55:51;8.88;;;4.78;;
21444;SDS011;10883;51.946;20.140;2023-05-02T14:58:17;8.05;;;5.18;;
21444;SDS011;10883;51.946;20.140;2023-05-02T15:00:44;8.05;;;5.05;;
21444;SDS011;10883;51.946;20.140;2023-05-02T15:03:11;11.32;;;5.18;;
21444;SDS011;10883;51.946;20.140;2023-05-02T15:05:37;8.73;;;5.13;;
21444;SDS011;10883;51.946;20.140;2023-05-02T15:08:04;8.43;;;4.80;;
21444;SDS011;10883;51.946;20.140;2023-05-02T15:10:30;6.75;;;4.50;;
21444;SDS011;10883;51.946;20.140;2023-05-02T15:12:58;6.57;;;4.80;;
21444;SDS011;10883;51.946;20.140;2023-05-02T15:15:24;9.25;;;4.60;;
21444;SDS011;10883;51.946;20.140;2023-05-02T15:17:50;6.70;;;4.53;;
21444;SDS011;10883;51.946;20.140;2023-05-02T15:20:17;7.28;;;4.60;;
21444;SDS011;10883;51.946;20.140;2023-05-02T15:22:43;8.00;;;4.53;;